sensor_id;sensor_type;location;lat;lon;timestamp;P1;durP1;ratioP1;P2;durP2;ratioP2
78453;SDS011;67750;55.832;49.124;2023-03-13T00:01:44;7.22;;;2.25;;
78453;SDS011;67750;55.832;49.124;2023-03-13T00:04:13;6.60;;;1.57;;
78453;SDS011;67750;55.832;49.124;2023-03-13T00:06:42;10.00;;;1.82;;
78453;SDS011;67750;55.832;49.124;2023-03-13T00:09:12;10.93;;;1.80;;
78453;SDS011;67750;55.832;49.124;2023-03-13T00:11:43;10.48;;;2.08;;
78453;SDS011;67750;55.832;49.124;2023-03-13T00:14:13;7.03;;;1.80;;
78453;SDS011;67750;55.832;49.124;2023-03-13T00:16:42;14.13;;;3.02;;
78453;SDS011;67750;55.832;49.124;2023-03-13T00:19:12;11.48;;;3.27;;
78453;SDS011;67750;55.832;49.124;2023-03-13T00:21:41;7.85;;;2.83;;
78453;SDS011;67750;55.832;49.124;2023-03-13T00:24:11;11.40;;;3.55;;
78453;SDS011;67750;55.832;49.124;2023-03-13T00:26:40;10.75;;;3.20;;
78453;SDS011;67750;55.832;49.124;2023-03-13T00:29:10;11.03;;;2.22;;
78453;SDS011;67750;55.832;49.124;2023-03-13T00:31:39;11.90;;;2.75;;
78453;SDS011;67750;55.832;49.124;2023-03-13T00:34:09;13.45;;;2.33;;
78453;SDS011;67750;55.832;49.124;2023-03-13T00:36:38;6.60;;;2.12;;
78453;SDS011;67750;55.832;49.124;2023-03-13T00:39:08;11.33;;;2.40;;
78453;SDS011;67750;55.832;49.124;2023-03-13T00:41:37;11.85;;;2.20;;
78453;SDS011;67750;55.832;49.124;2023-03-13T00:44:07;11.83;;;2.30;;
78453;SDS011;67750;55.832;49.124;2023-03-13T00:46:36;10.20;;;2.08;;
78453;SDS011;67750;55.832;49.124;2023-03-13T00:49:05;12.60;;;3.40;;
78453;SDS011;67750;55.832;49.124;2023-03-13T00:51:35;11.55;;;1.60;;
78453;SDS011;67750;55.832;49.124;2023-03-13T00:54:04;11.73;;;2.27;;
78453;SDS011;67750;55.832;49.124;2023-03-13T00:56:34;9.75;;;1.90;;
78453;SDS011;67750;55.832;49.124;2023-03-13T00:59:03;13.25;;;2.40;;
78453;SDS011;67750;55.832;49.124;2023-03-13T01:01:33;8.03;;;2.20;;
78453;SDS011;67750;55.832;49.124;2023-03-13T01:06:52;23.02;;;5.28;;
78453;SDS011;67750;55.832;49.124;2023-03-13T01:09:22;6.10;;;1.22;;
78453;SDS011;67750;55.832;49.124;2023-03-13T01:11:51;8.48;;;1.42;;
78453;SDS011;67750;55.832;49.124;2023-03-13T01:14:20;14.80;;;2.10;;
78453;SDS011;67750;55.832;49.124;2023-03-13T01:16:51;9.13;;;1.70;;
78453;SDS011;67750;55.832;49.124;2023-03-13T01:19:21;12.35;;;2.00;;
78453;SDS011;67750;55.832;49.124;2023-03-13T01:21:50;9.23;;;2.00;;
78453;SDS011;67750;55.832;49.124;2023-03-13T01:24:19;19.12;;;2.17;;
78453;SDS011;67750;55.832;49.124;2023-03-13T01:26:50;9.63;;;1.90;;
78453;SDS011;67750;55.832;49.124;2023-03-13T01:29:19;6.80;;;2.17;;
78453;SDS011;67750;55.832;49.124;2023-03-13T01:31:49;12.25;;;1.80;;
78453;SDS011;67750;55.832;49.124;2023-03-13T01:34:18;11.33;;;2.40;;
78453;SDS011;67750;55.832;49.124;2023-03-13T01:36:48;11.22;;;1.72;;
78453;SDS011;67750;55.832;49.124;2023-03-13T01:39:18;8.78;;;1.98;;
78453;SDS011;67750;55.832;49.124;2023-03-13T01:41:47;8.85;;;1.75;;
78453;SDS011;67750;55.832;49.124;2023-03-13T01:44:19;9.10;;;2.72;;
78453;SDS011;67750;55.832;49.124;2023-03-13T01:46:48;7.95;;;1.70;;
78453;SDS011;67750;55.832;49.124;2023-03-13T01:52:46;12.05;;;1.77;;
78453;SDS011;67750;55.832;49.124;2023-03-13T01:55:04;8.25;;;1.72;;
78453;SDS011;67750;55.832;49.124;2023-03-13T01:57:36;9.85;;;1.90;;
78453;SDS011;67750;55.832;49.124;2023-03-13T02:00:07;6.80;;;1.55;;
78453;SDS011;67750;55.832;49.124;2023-03-13T02:02:56;13.20;;;2.20;;
78453;SDS011;67750;55.832;49.124;2023-03-13T02:05:27;9.98;;;2.40;;
78453;SDS011;67750;55.832;49.124;2023-03-13T02:07:58;6.85;;;1.37;;
78453;SDS011;67750;55.832;49.124;2023-03-13T02:10:28;11.57;;;2.30;;
78453;SDS011;67750;55.832;49.124;2023-03-13T02:12:58;8.55;;;1.85;;
78453;SDS011;67750;55.832;49.124;2023-03-13T02:15:29;5.92;;;1.37;;
78453;SDS011;67750;55.832;49.124;2023-03-13T02:17:59;6.15;;;1.70;;
78453;SDS011;67750;55.832;49.124;2023-03-13T02:20:28;5.55;;;2.02;;
78453;SDS011;67750;55.832;49.124;2023-03-13T02:25:48;6.83;;;1.80;;
78453;SDS011;67750;55.832;49.124;2023-03-13T02:31:12;8.05;;;2.10;;
78453;SDS011;67750;55.832;49.124;2023-03-13T02:33:41;10.08;;;2.60;;
78453;SDS011;67750;55.832;49.124;2023-03-13T02:36:13;7.17;;;2.80;;
78453;SDS011;67750;55.832;49.124;2023-03-13T02:39:19;8.63;;;2.45;;
78453;SDS011;67750;55.832;49.124;2023-03-13T02:41:17;14.10;;;3.10;;
78453;SDS011;67750;55.832;49.124;2023-03-13T02:43:47;9.28;;;2.20;;
78453;SDS011;67750;55.832;49.124;2023-03-13T02:46:18;6.72;;;2.30;;
78453;SDS011;67750;55.832;49.124;2023-03-13T02:48:50;11.75;;;2.80;;
78453;SDS011;67750;55.832;49.124;2023-03-13T02:54:11;9.23;;;1.92;;
78453;SDS011;67750;55.832;49.124;2023-03-13T02:56:42;3.80;;;1.20;;
78453;SDS011;67750;55.832;49.124;2023-03-13T02:59:12;9.20;;;1.37;;
78453;SDS011;67750;55.832;49.124;2023-03-13T03:01:42;7.90;;;1.67;;
78453;SDS011;67750;55.832;49.124;2023-03-13T03:04:12;6.30;;;1.40;;
78453;SDS011;67750;55.832;49.124;2023-03-13T03:06:41;5.28;;;1.02;;
78453;SDS011;67750;55.832;49.124;2023-03-13T03:09:11;4.12;;;1.17;;
78453;SDS011;67750;55.832;49.124;2023-03-13T03:11:40;5.20;;;1.17;;
78453;SDS011;67750;55.832;49.124;2023-03-13T03:14:11;6.67;;;1.25;;
78453;SDS011;67750;55.832;49.124;2023-03-13T03:16:43;7.90;;;1.50;;
78453;SDS011;67750;55.832;49.124;2023-03-13T03:19:12;6.40;;;1.25;;
78453;SDS011;67750;55.832;49.124;2023-03-13T03:21:42;2.87;;;1.05;;
78453;SDS011;67750;55.832;49.124;2023-03-13T03:24:11;4.85;;;0.98;;
78453;SDS011;67750;55.832;49.124;2023-03-13T03:26:41;11.73;;;1.42;;
78453;SDS011;67750;55.832;49.124;2023-03-13T03:29:12;7.87;;;1.50;;
78453;SDS011;67750;55.832;49.124;2023-03-13T03:31:42;8.03;;;1.10;;
78453;SDS011;67750;55.832;49.124;2023-03-13T03:34:12;8.90;;;1.55;;
78453;SDS011;67750;55.832;49.124;2023-03-13T03:36:41;5.90;;;1.25;;
78453;SDS011;67750;55.832;49.124;2023-03-13T03:39:10;5.33;;;1.20;;
78453;SDS011;67750;55.832;49.124;2023-03-13T03:41:40;3.67;;;1.10;;
78453;SDS011;67750;55.832;49.124;2023-03-13T03:44:10;5.05;;;1.15;;
78453;SDS011;67750;55.832;49.124;2023-03-13T03:46:41;4.97;;;1.20;;
78453;SDS011;67750;55.832;49.124;2023-03-13T03:49:11;7.50;;;1.40;;
78453;SDS011;67750;55.832;49.124;2023-03-13T03:51:41;5.58;;;1.00;;
78453;SDS011;67750;55.832;49.124;2023-03-13T03:54:11;5.65;;;1.55;;
78453;SDS011;67750;55.832;49.124;2023-03-13T03:56:40;7.80;;;1.15;;
78453;SDS011;67750;55.832;49.124;2023-03-13T03:59:10;9.83;;;1.55;;
78453;SDS011;67750;55.832;49.124;2023-03-13T04:01:41;5.20;;;1.12;;
78453;SDS011;67750;55.832;49.124;2023-03-13T04:04:11;3.52;;;1.05;;
78453;SDS011;67750;55.832;49.124;2023-03-13T04:06:42;3.12;;;1.40;;
78453;SDS011;67750;55.832;49.124;2023-03-13T04:09:11;7.87;;;1.55;;
78453;SDS011;67750;55.832;49.124;2023-03-13T04:11:41;2.60;;;1.40;;
78453;SDS011;67750;55.832;49.124;2023-03-13T04:14:11;2.77;;;1.42;;
78453;SDS011;67750;55.832;49.124;2023-03-13T04:16:40;3.33;;;1.40;;
78453;SDS011;67750;55.832;49.124;2023-03-13T04:19:10;2.70;;;1.47;;
78453;SDS011;67750;55.832;49.124;2023-03-13T04:21:40;2.22;;;1.35;;
78453;SDS011;67750;55.832;49.124;2023-03-13T04:24:11;3.40;;;1.30;;
78453;SDS011;67750;55.832;49.124;2023-03-13T04:26:42;3.22;;;1.50;;
78453;SDS011;67750;55.832;49.124;2023-03-13T04:29:13;4.45;;;1.90;;
78453;SDS011;67750;55.832;49.124;2023-03-13T04:32:02;4.25;;;1.70;;
78453;SDS011;67750;55.832;49.124;2023-03-13T04:34:33;4.78;;;1.60;;
78453;SDS011;67750;55.832;49.124;2023-03-13T04:37:22;2.77;;;1.40;;
78453;SDS011;67750;55.832;49.124;2023-03-13T04:40:11;6.03;;;1.72;;
78453;SDS011;67750;55.832;49.124;2023-03-13T04:43:01;3.02;;;1.40;;
78453;SDS011;67750;55.832;49.124;2023-03-13T04:45:51;3.72;;;1.50;;
78453;SDS011;67750;55.832;49.124;2023-03-13T04:48:24;3.85;;;1.22;;
78453;SDS011;67750;55.832;49.124;2023-03-13T04:51:13;2.42;;;1.30;;
78453;SDS011;67750;55.832;49.124;2023-03-13T04:54:02;2.02;;;1.22;;
78453;SDS011;67750;55.832;49.124;2023-03-13T04:56:52;1.77;;;0.98;;
78453;SDS011;67750;55.832;49.124;2023-03-13T04:59:41;2.30;;;1.10;;
78453;SDS011;67750;55.832;49.124;2023-03-13T05:02:30;2.70;;;1.07;;
78453;SDS011;67750;55.832;49.124;2023-03-13T05:05:20;2.37;;;0.88;;
78453;SDS011;67750;55.832;49.124;2023-03-13T05:08:09;2.60;;;0.80;;
78453;SDS011;67750;55.832;49.124;2023-03-13T05:10:58;4.67;;;1.17;;
78453;SDS011;67750;55.832;49.124;2023-03-13T05:13:48;2.70;;;0.80;;
78453;SDS011;67750;55.832;49.124;2023-03-13T05:16:37;1.40;;;0.80;;
78453;SDS011;67750;55.832;49.124;2023-03-13T05:19:27;1.50;;;0.80;;
78453;SDS011;67750;55.832;49.124;2023-03-13T05:22:16;3.75;;;1.25;;
78453;SDS011;67750;55.832;49.124;2023-03-13T05:25:05;1.50;;;0.80;;
78453;SDS011;67750;55.832;49.124;2023-03-13T05:27:55;0.98;;;0.60;;
78453;SDS011;67750;55.832;49.124;2023-03-13T05:30:44;2.77;;;0.75;;
78453;SDS011;67750;55.832;49.124;2023-03-13T05:33:33;1.47;;;0.60;;
78453;SDS011;67750;55.832;49.124;2023-03-13T05:36:05;1.52;;;0.80;;
78453;SDS011;67750;55.832;49.124;2023-03-13T05:38:54;1.25;;;0.60;;
78453;SDS011;67750;55.832;49.124;2023-03-13T05:41:43;1.37;;;0.70;;
78453;SDS011;67750;55.832;49.124;2023-03-13T05:44:14;1.40;;;0.90;;
78453;SDS011;67750;55.832;49.124;2023-03-13T05:47:04;2.80;;;0.82;;
78453;SDS011;67750;55.832;49.124;2023-03-13T05:49:53;1.10;;;0.60;;
78453;SDS011;67750;55.832;49.124;2023-03-13T05:56:09;1.35;;;0.82;;
78453;SDS011;67750;55.832;49.124;2023-03-13T05:58:59;1.37;;;0.80;;
78453;SDS011;67750;55.832;49.124;2023-03-13T06:01:48;1.60;;;0.78;;
78453;SDS011;67750;55.832;49.124;2023-03-13T06:04:37;2.00;;;0.90;;
78453;SDS011;67750;55.832;49.124;2023-03-13T06:07:07;1.85;;;1.00;;
78453;SDS011;67750;55.832;49.124;2023-03-13T06:09:37;2.47;;;1.10;;
78453;SDS011;67750;55.832;49.124;2023-03-13T06:12:08;3.75;;;1.10;;
78453;SDS011;67750;55.832;49.124;2023-03-13T06:14:38;3.02;;;0.80;;
78453;SDS011;67750;55.832;49.124;2023-03-13T06:17:27;2.33;;;1.00;;
78453;SDS011;67750;55.832;49.124;2023-03-13T06:19:56;1.87;;;0.98;;
78453;SDS011;67750;55.832;49.124;2023-03-13T06:22:26;1.80;;;0.88;;
78453;SDS011;67750;55.832;49.124;2023-03-13T06:24:56;1.70;;;1.10;;
78453;SDS011;67750;55.832;49.124;2023-03-13T06:27:26;1.72;;;0.75;;
78453;SDS011;67750;55.832;49.124;2023-03-13T06:29:55;1.77;;;1.00;;
78453;SDS011;67750;55.832;49.124;2023-03-13T06:32:24;2.75;;;1.00;;
78453;SDS011;67750;55.832;49.124;2023-03-13T06:34:54;3.75;;;1.12;;
78453;SDS011;67750;55.832;49.124;2023-03-13T06:37:23;1.40;;;0.90;;
78453;SDS011;67750;55.832;49.124;2023-03-13T06:39:53;2.25;;;1.07;;
78453;SDS011;67750;55.832;49.124;2023-03-13T06:42:22;2.17;;;1.30;;
78453;SDS011;67750;55.832;49.124;2023-03-13T06:44:51;2.52;;;1.10;;
78453;SDS011;67750;55.832;49.124;2023-03-13T06:47:21;2.52;;;1.42;;
78453;SDS011;67750;55.832;49.124;2023-03-13T06:49:52;3.20;;;1.55;;
78453;SDS011;67750;55.832;49.124;2023-03-13T06:52:21;3.27;;;1.30;;
78453;SDS011;67750;55.832;49.124;2023-03-13T06:54:51;1.95;;;1.22;;
78453;SDS011;67750;55.832;49.124;2023-03-13T06:57:20;2.22;;;1.40;;
78453;SDS011;67750;55.832;49.124;2023-03-13T06:59:50;2.67;;;1.52;;
78453;SDS011;67750;55.832;49.124;2023-03-13T07:02:19;2.67;;;1.35;;
78453;SDS011;67750;55.832;49.124;2023-03-13T07:04:49;2.98;;;1.57;;
78453;SDS011;67750;55.832;49.124;2023-03-13T07:07:18;2.58;;;1.20;;
78453;SDS011;67750;55.832;49.124;2023-03-13T07:09:47;2.62;;;1.32;;
78453;SDS011;67750;55.832;49.124;2023-03-13T07:12:17;3.17;;;1.42;;
78453;SDS011;67750;55.832;49.124;2023-03-13T07:14:46;3.37;;;1.52;;
78453;SDS011;67750;55.832;49.124;2023-03-13T07:17:16;3.02;;;1.50;;
78453;SDS011;67750;55.832;49.124;2023-03-13T07:19:45;3.22;;;1.50;;
78453;SDS011;67750;55.832;49.124;2023-03-13T07:22:14;2.67;;;1.70;;
78453;SDS011;67750;55.832;49.124;2023-03-13T07:24:44;2.60;;;1.70;;
78453;SDS011;67750;55.832;49.124;2023-03-13T07:27:13;2.92;;;1.50;;
78453;SDS011;67750;55.832;49.124;2023-03-13T07:29:43;3.62;;;1.90;;
78453;SDS011;67750;55.832;49.124;2023-03-13T07:32:12;3.02;;;1.90;;
78453;SDS011;67750;55.832;49.124;2023-03-13T07:34:42;2.60;;;1.42;;
78453;SDS011;67750;55.832;49.124;2023-03-13T07:37:11;3.87;;;1.77;;
78453;SDS011;67750;55.832;49.124;2023-03-13T07:39:41;3.27;;;1.77;;
78453;SDS011;67750;55.832;49.124;2023-03-13T07:42:11;2.40;;;1.60;;
78453;SDS011;67750;55.832;49.124;2023-03-13T07:44:40;2.77;;;1.70;;
78453;SDS011;67750;55.832;49.124;2023-03-13T07:47:10;2.98;;;1.57;;
78453;SDS011;67750;55.832;49.124;2023-03-13T07:49:39;3.52;;;1.77;;
78453;SDS011;67750;55.832;49.124;2023-03-13T07:52:10;3.40;;;2.00;;
78453;SDS011;67750;55.832;49.124;2023-03-13T07:54:39;2.98;;;1.92;;
78453;SDS011;67750;55.832;49.124;2023-03-13T07:57:08;3.17;;;1.60;;
78453;SDS011;67750;55.832;49.124;2023-03-13T07:59:38;3.12;;;1.80;;
78453;SDS011;67750;55.832;49.124;2023-03-13T08:02:08;3.00;;;1.77;;
78453;SDS011;67750;55.832;49.124;2023-03-13T08:04:39;2.95;;;1.55;;
78453;SDS011;67750;55.832;49.124;2023-03-13T08:07:09;3.02;;;1.50;;
78453;SDS011;67750;55.832;49.124;2023-03-13T08:09:39;2.80;;;1.40;;
78453;SDS011;67750;55.832;49.124;2023-03-13T08:12:08;2.90;;;1.80;;
78453;SDS011;67750;55.832;49.124;2023-03-13T08:14:38;2.65;;;1.60;;
78453;SDS011;67750;55.832;49.124;2023-03-13T08:17:07;5.03;;;1.80;;
78453;SDS011;67750;55.832;49.124;2023-03-13T08:19:36;3.08;;;1.87;;
78453;SDS011;67750;55.832;49.124;2023-03-13T08:22:06;3.35;;;1.70;;
78453;SDS011;67750;55.832;49.124;2023-03-13T08:24:35;3.65;;;1.92;;
78453;SDS011;67750;55.832;49.124;2023-03-13T08:27:05;3.33;;;1.85;;
78453;SDS011;67750;55.832;49.124;2023-03-13T08:29:34;2.83;;;1.95;;
78453;SDS011;67750;55.832;49.124;2023-03-13T08:32:04;3.95;;;1.80;;
78453;SDS011;67750;55.832;49.124;2023-03-13T08:34:33;3.67;;;1.67;;
78453;SDS011;67750;55.832;49.124;2023-03-13T08:37:03;4.22;;;1.67;;
78453;SDS011;67750;55.832;49.124;2023-03-13T08:39:32;2.92;;;1.35;;
78453;SDS011;67750;55.832;49.124;2023-03-13T08:42:01;4.53;;;2.30;;
78453;SDS011;67750;55.832;49.124;2023-03-13T08:44:31;2.92;;;1.62;;
78453;SDS011;67750;55.832;49.124;2023-03-13T08:47:00;3.90;;;1.80;;
78453;SDS011;67750;55.832;49.124;2023-03-13T08:49:30;3.72;;;1.92;;
78453;SDS011;67750;55.832;49.124;2023-03-13T08:51:59;2.98;;;1.60;;
78453;SDS011;67750;55.832;49.124;2023-03-13T08:54:28;2.72;;;1.60;;
78453;SDS011;67750;55.832;49.124;2023-03-13T08:56:58;2.85;;;1.35;;
78453;SDS011;67750;55.832;49.124;2023-03-13T08:59:27;2.75;;;1.30;;
78453;SDS011;67750;55.832;49.124;2023-03-13T09:01:57;3.27;;;1.50;;
78453;SDS011;67750;55.832;49.124;2023-03-13T09:04:26;2.62;;;1.42;;
78453;SDS011;67750;55.832;49.124;2023-03-13T09:06:56;1.80;;;1.20;;
78453;SDS011;67750;55.832;49.124;2023-03-13T09:09:25;4.10;;;1.75;;
78453;SDS011;67750;55.832;49.124;2023-03-13T09:11:54;3.08;;;1.60;;
78453;SDS011;67750;55.832;49.124;2023-03-13T09:14:24;3.62;;;1.52;;
78453;SDS011;67750;55.832;49.124;2023-03-13T09:16:53;2.37;;;1.47;;
78453;SDS011;67750;55.832;49.124;2023-03-13T09:19:24;2.22;;;1.10;;
78453;SDS011;67750;55.832;49.124;2023-03-13T09:21:54;2.67;;;1.45;;
78453;SDS011;67750;55.832;49.124;2023-03-13T09:24:23;1.77;;;1.12;;
78453;SDS011;67750;55.832;49.124;2023-03-13T09:26:53;2.27;;;1.42;;
78453;SDS011;67750;55.832;49.124;2023-03-13T09:29:22;3.25;;;1.52;;
78453;SDS011;67750;55.832;49.124;2023-03-13T09:31:52;2.65;;;1.40;;
78453;SDS011;67750;55.832;49.124;2023-03-13T09:34:21;3.55;;;1.67;;
78453;SDS011;67750;55.832;49.124;2023-03-13T09:36:51;2.62;;;1.37;;
78453;SDS011;67750;55.832;49.124;2023-03-13T09:39:20;5.05;;;2.08;;
78453;SDS011;67750;55.832;49.124;2023-03-13T09:47:47;2.75;;;1.60;;
78453;SDS011;67750;55.832;49.124;2023-03-13T09:52:33;2.77;;;1.37;;
78453;SDS011;67750;55.832;49.124;2023-03-13T09:57:55;2.70;;;1.40;;
78453;SDS011;67750;55.832;49.124;2023-03-13T10:06:05;3.25;;;1.35;;
78453;SDS011;67750;55.832;49.124;2023-03-13T10:08:35;2.42;;;1.35;;
78453;SDS011;67750;55.832;49.124;2023-03-13T10:16:44;2.17;;;1.20;;
78453;SDS011;67750;55.832;49.124;2023-03-13T10:19:14;3.08;;;1.32;;
78453;SDS011;67750;55.832;49.124;2023-03-13T10:21:46;2.42;;;1.40;;
78453;SDS011;67750;55.832;49.124;2023-03-13T10:27:06;4.00;;;1.42;;
78453;SDS011;67750;55.832;49.124;2023-03-13T10:29:35;2.90;;;1.60;;
78453;SDS011;67750;55.832;49.124;2023-03-13T10:32:06;2.52;;;1.40;;
78453;SDS011;67750;55.832;49.124;2023-03-13T10:37:27;2.55;;;1.32;;
78453;SDS011;67750;55.832;49.124;2023-03-13T10:42:48;2.10;;;1.02;;
78453;SDS011;67750;55.832;49.124;2023-03-13T10:45:20;2.40;;;1.30;;
78453;SDS011;67750;55.832;49.124;2023-03-13T10:50:40;2.25;;;1.20;;
78453;SDS011;67750;55.832;49.124;2023-03-13T10:56:03;2.90;;;2.00;;
78453;SDS011;67750;55.832;49.124;2023-03-13T11:01:21;2.20;;;1.32;;
78453;SDS011;67750;55.832;49.124;2023-03-13T11:03:54;2.72;;;1.27;;
78453;SDS011;67750;55.832;49.124;2023-03-13T11:09:13;2.17;;;1.10;;
78453;SDS011;67750;55.832;49.124;2023-03-13T11:47:18;2.35;;;0.90;;
78453;SDS011;67750;55.832;49.124;2023-03-13T12:01:19;1.72;;;0.82;;
78453;SDS011;67750;55.832;49.124;2023-03-13T12:06:05;2.77;;;0.90;;
78453;SDS011;67750;55.832;49.124;2023-03-13T12:11:25;2.00;;;0.82;;
78453;SDS011;67750;55.832;49.124;2023-03-13T12:22:38;1.95;;;1.00;;
78453;SDS011;67750;55.832;49.124;2023-03-13T12:33:10;1.85;;;0.80;;
78453;SDS011;67750;55.832;49.124;2023-03-13T12:35:35;1.75;;;0.80;;
78453;SDS011;67750;55.832;49.124;2023-03-13T12:38:41;2.37;;;0.90;;
78453;SDS011;67750;55.832;49.124;2023-03-13T12:40:38;2.35;;;0.80;;
78453;SDS011;67750;55.832;49.124;2023-03-13T12:46:32;1.00;;;0.70;;
78453;SDS011;67750;55.832;49.124;2023-03-13T12:59:29;2.80;;;0.93;;
78453;SDS011;67750;55.832;49.124;2023-03-13T13:01:58;1.80;;;0.95;;
78453;SDS011;67750;55.832;49.124;2023-03-13T13:04:30;4.65;;;1.10;;
78453;SDS011;67750;55.832;49.124;2023-03-13T13:07:31;1.75;;;1.10;;
78453;SDS011;67750;55.832;49.124;2023-03-13T13:12:21;3.08;;;1.00;;
78453;SDS011;67750;55.832;49.124;2023-03-13T13:15:24;1.67;;;1.00;;
78453;SDS011;67750;55.832;49.124;2023-03-13T13:25:52;2.17;;;1.20;;
78453;SDS011;67750;55.832;49.124;2023-03-13T13:28:23;1.77;;;0.90;;
78453;SDS011;67750;55.832;49.124;2023-03-13T13:30:54;2.00;;;0.93;;
78453;SDS011;67750;55.832;49.124;2023-03-13T13:39:03;2.70;;;1.32;;
78453;SDS011;67750;55.832;49.124;2023-03-13T13:41:34;2.47;;;1.10;;
78453;SDS011;67750;55.832;49.124;2023-03-13T13:46:53;2.62;;;1.20;;
78453;SDS011;67750;55.832;49.124;2023-03-13T13:49:27;2.72;;;1.20;;
78453;SDS011;67750;55.832;49.124;2023-03-13T13:57:52;2.60;;;1.17;;
78453;SDS011;67750;55.832;49.124;2023-03-13T14:02:37;2.35;;;1.25;;
78453;SDS011;67750;55.832;49.124;2023-03-13T14:05:14;1.87;;;1.10;;
78453;SDS011;67750;55.832;49.124;2023-03-13T14:08:15;2.10;;;1.25;;
78453;SDS011;67750;55.832;49.124;2023-03-13T14:13:01;4.08;;;1.40;;
78453;SDS011;67750;55.832;49.124;2023-03-13T14:15:32;2.02;;;1.17;;
78453;SDS011;67750;55.832;49.124;2023-03-13T14:23:43;2.77;;;1.30;;
78453;SDS011;67750;55.832;49.124;2023-03-13T14:29:02;3.52;;;1.30;;
78453;SDS011;67750;55.832;49.124;2023-03-13T14:31:32;2.10;;;1.17;;
78453;SDS011;67750;55.832;49.124;2023-03-13T14:34:03;2.75;;;1.20;;
78453;SDS011;67750;55.832;49.124;2023-03-13T14:42:12;2.55;;;1.17;;
78453;SDS011;67750;55.832;49.124;2023-03-13T14:44:42;2.27;;;1.30;;
78453;SDS011;67750;55.832;49.124;2023-03-13T14:50:07;2.37;;;1.02;;
78453;SDS011;67750;55.832;49.124;2023-03-13T14:52:34;2.30;;;1.20;;
78453;SDS011;67750;55.832;49.124;2023-03-13T14:55:39;3.10;;;1.22;;
78453;SDS011;67750;55.832;49.124;2023-03-13T14:57:37;2.35;;;1.30;;
78453;SDS011;67750;55.832;49.124;2023-03-13T15:06:19;2.70;;;1.50;;
78453;SDS011;67750;55.832;49.124;2023-03-13T15:08:19;2.87;;;1.00;;
78453;SDS011;67750;55.832;49.124;2023-03-13T15:10:49;2.30;;;1.15;;
78453;SDS011;67750;55.832;49.124;2023-03-13T15:15:50;2.58;;;1.35;;
78453;SDS011;67750;55.832;49.124;2023-03-13T15:18:22;2.62;;;1.10;;
78453;SDS011;67750;55.832;49.124;2023-03-13T15:20:52;2.40;;;1.17;;
78453;SDS011;67750;55.832;49.124;2023-03-13T15:23:22;3.37;;;1.25;;
78453;SDS011;67750;55.832;49.124;2023-03-13T15:25:51;2.58;;;1.45;;
78453;SDS011;67750;55.832;49.124;2023-03-13T15:28:21;4.60;;;1.20;;
78453;SDS011;67750;55.832;49.124;2023-03-13T15:30:52;2.05;;;1.25;;
78453;SDS011;67750;55.832;49.124;2023-03-13T15:33:22;2.98;;;1.15;;
78453;SDS011;67750;55.832;49.124;2023-03-13T15:35:51;2.80;;;1.40;;
78453;SDS011;67750;55.832;49.124;2023-03-13T15:38:22;3.17;;;1.60;;
78453;SDS011;67750;55.832;49.124;2023-03-13T15:40:51;4.12;;;1.77;;
78453;SDS011;67750;55.832;49.124;2023-03-13T15:43:21;3.65;;;1.80;;
78453;SDS011;67750;55.832;49.124;2023-03-13T15:45:51;3.60;;;1.70;;
78453;SDS011;67750;55.832;49.124;2023-03-13T15:48:51;3.12;;;1.62;;
78453;SDS011;67750;55.832;49.124;2023-03-13T15:50:54;2.90;;;1.40;;
78453;SDS011;67750;55.832;49.124;2023-03-13T15:53:44;3.42;;;1.90;;
78453;SDS011;67750;55.832;49.124;2023-03-13T16:01:52;4.33;;;1.70;;
78453;SDS011;67750;55.832;49.124;2023-03-13T16:04:21;3.92;;;1.85;;
78453;SDS011;67750;55.832;49.124;2023-03-13T16:06:51;5.70;;;2.02;;
78453;SDS011;67750;55.832;49.124;2023-03-13T16:09:20;3.05;;;1.70;;
78453;SDS011;67750;55.832;49.124;2023-03-13T16:11:49;3.15;;;1.85;;
78453;SDS011;67750;55.832;49.124;2023-03-13T16:14:19;4.97;;;1.65;;
78453;SDS011;67750;55.832;49.124;2023-03-13T16:16:48;5.08;;;1.85;;
78453;SDS011;67750;55.832;49.124;2023-03-13T16:19:18;5.47;;;1.77;;
78453;SDS011;67750;55.832;49.124;2023-03-13T16:21:48;4.12;;;2.45;;
78453;SDS011;67750;55.832;49.124;2023-03-13T16:24:18;4.35;;;2.05;;
78453;SDS011;67750;55.832;49.124;2023-03-13T16:26:48;3.67;;;2.10;;
78453;SDS011;67750;55.832;49.124;2023-03-13T16:29:17;4.47;;;2.00;;
78453;SDS011;67750;55.832;49.124;2023-03-13T16:31:46;4.55;;;1.65;;
78453;SDS011;67750;55.832;49.124;2023-03-13T16:34:16;2.77;;;1.45;;
78453;SDS011;67750;55.832;49.124;2023-03-13T16:36:45;3.80;;;2.00;;
78453;SDS011;67750;55.832;49.124;2023-03-13T16:39:15;4.28;;;1.65;;
78453;SDS011;67750;55.832;49.124;2023-03-13T16:41:44;6.30;;;1.70;;
78453;SDS011;67750;55.832;49.124;2023-03-13T16:44:14;5.20;;;1.90;;
78453;SDS011;67750;55.832;49.124;2023-03-13T16:46:43;2.62;;;1.45;;
78453;SDS011;67750;55.832;49.124;2023-03-13T16:49:13;4.95;;;1.82;;
78453;SDS011;67750;55.832;49.124;2023-03-13T16:51:42;5.45;;;2.08;;
78453;SDS011;67750;55.832;49.124;2023-03-13T16:54:12;6.58;;;1.85;;
78453;SDS011;67750;55.832;49.124;2023-03-13T16:56:42;4.45;;;2.10;;
78453;SDS011;67750;55.832;49.124;2023-03-13T16:59:12;3.90;;;1.67;;
78453;SDS011;67750;55.832;49.124;2023-03-13T17:01:42;9.55;;;2.50;;
78453;SDS011;67750;55.832;49.124;2023-03-13T17:04:14;7.30;;;3.42;;
78453;SDS011;67750;55.832;49.124;2023-03-13T17:06:43;5.83;;;1.50;;
78453;SDS011;67750;55.832;49.124;2023-03-13T17:12:03;5.22;;;1.85;;
78453;SDS011;67750;55.832;49.124;2023-03-13T17:14:32;3.00;;;1.50;;
78453;SDS011;67750;55.832;49.124;2023-03-13T17:17:02;5.62;;;2.20;;
78453;SDS011;67750;55.832;49.124;2023-03-13T17:19:32;5.10;;;1.92;;
78453;SDS011;67750;55.832;49.124;2023-03-13T17:22:02;6.15;;;2.20;;
78453;SDS011;67750;55.832;49.124;2023-03-13T17:24:31;5.60;;;2.35;;
78453;SDS011;67750;55.832;49.124;2023-03-13T17:27:00;5.03;;;2.27;;
78453;SDS011;67750;55.832;49.124;2023-03-13T17:29:30;4.10;;;2.20;;
78453;SDS011;67750;55.832;49.124;2023-03-13T17:31:59;4.95;;;1.80;;
78453;SDS011;67750;55.832;49.124;2023-03-13T17:34:29;4.35;;;2.20;;
78453;SDS011;67750;55.832;49.124;2023-03-13T17:36:58;3.55;;;1.98;;
78453;SDS011;67750;55.832;49.124;2023-03-13T17:39:29;4.47;;;2.12;;
78453;SDS011;67750;55.832;49.124;2023-03-13T17:41:59;3.65;;;2.00;;
78453;SDS011;67750;55.832;49.124;2023-03-13T17:44:30;3.90;;;2.20;;
78453;SDS011;67750;55.832;49.124;2023-03-13T17:46:59;3.77;;;1.67;;
78453;SDS011;67750;55.832;49.124;2023-03-13T17:49:29;2.87;;;1.70;;
78453;SDS011;67750;55.832;49.124;2023-03-13T17:51:58;5.85;;;1.80;;
78453;SDS011;67750;55.832;49.124;2023-03-13T17:54:27;4.20;;;2.08;;
78453;SDS011;67750;55.832;49.124;2023-03-13T17:56:57;3.55;;;1.60;;
78453;SDS011;67750;55.832;49.124;2023-03-13T17:59:26;8.33;;;1.98;;
78453;SDS011;67750;55.832;49.124;2023-03-13T18:01:56;5.00;;;1.80;;
78453;SDS011;67750;55.832;49.124;2023-03-13T18:04:25;3.67;;;1.70;;
78453;SDS011;67750;55.832;49.124;2023-03-13T18:06:54;6.37;;;1.60;;
78453;SDS011;67750;55.832;49.124;2023-03-13T18:09:25;3.35;;;1.60;;
78453;SDS011;67750;55.832;49.124;2023-03-13T18:11:55;3.12;;;1.20;;
78453;SDS011;67750;55.832;49.124;2023-03-13T18:14:24;2.87;;;1.45;;
78453;SDS011;67750;55.832;49.124;2023-03-13T18:16:54;2.27;;;1.10;;
78453;SDS011;67750;55.832;49.124;2023-03-13T18:19:24;3.65;;;1.30;;
78453;SDS011;67750;55.832;49.124;2023-03-13T18:21:54;4.22;;;1.40;;
78453;SDS011;67750;55.832;49.124;2023-03-13T18:24:24;2.37;;;1.20;;
78453;SDS011;67750;55.832;49.124;2023-03-13T18:26:53;5.58;;;1.47;;